createdAt,value
2019-01-13T00:02:07.507Z,98931.98
2019-01-13T00:04:38.655Z,98923.77
2019-01-13T00:07:08.682Z,98927.75
2019-01-13T00:09:38.124Z,98930.41
2019-01-13T00:12:07.606Z,98925.35
2019-01-13T00:14:37.048Z,98925.89
2019-01-13T00:17:06.513Z,98927.75
2019-01-13T00:19:35.971Z,98928.00
2019-01-13T00:22:07.835Z,98923.48
2019-01-13T00:24:37.547Z,98927.75
2019-01-13T00:27:07.002Z,98926.94
2019-01-13T00:29:36.435Z,98922.45
2019-01-13T00:32:06.272Z,98923.23
2019-01-13T00:34:35.704Z,98924.56
2019-01-13T00:37:05.293Z,98919.55
2019-01-13T00:39:35.095Z,98922.98
2019-01-13T00:42:04.706Z,98921.11
2019-01-13T00:44:34.174Z,98924.55
2019-01-13T00:47:04.589Z,98924.05
2019-01-13T00:49:34.510Z,98921.66
2019-01-13T00:52:04.490Z,98920.86
2019-01-13T00:54:35.461Z,98923.52
2019-01-13T00:57:05.315Z,98920.05
2019-01-13T00:59:34.770Z,98915.03
2019-01-13T01:02:05.054Z,98925.09
2019-01-13T01:04:34.547Z,98915.56
2019-01-13T01:07:04.085Z,98918.22
2019-01-13T01:09:33.458Z,98919.54
2019-01-13T01:12:02.918Z,98909.47
2019-01-13T01:14:32.432Z,98916.61
2019-01-13T01:17:01.885Z,98913.16
2019-01-13T01:19:31.347Z,98915.27
2019-01-13T01:22:01.057Z,98917.42
2019-01-13T01:24:30.574Z,98908.67
2019-01-13T01:27:00.065Z,98903.87
2019-01-13T01:29:29.506Z,98903.63
2019-01-13T01:31:58.964Z,98906.80
2019-01-13T01:34:28.482Z,98897.78
2019-01-13T01:36:58.223Z,98897.52
2019-01-13T01:39:27.758Z,98893.79
2019-01-13T01:41:57.480Z,98892.47
2019-01-13T01:44:26.965Z,98890.64
2019-01-13T01:46:57.058Z,98892.74
2019-01-13T01:49:26.542Z,98893.54
2019-01-13T01:51:55.998Z,98901.75
2019-01-13T01:54:25.471Z,98889.56
2019-01-13T01:56:54.909Z,98892.21
2019-01-13T01:59:24.377Z,98893.29
2019-01-13T02:01:53.908Z,98895.13
2019-01-13T02:04:23.344Z,98886.38
2019-01-13T02:06:52.848Z,98890.11
2019-01-13T02:09:22.252Z,98900.95
2019-01-13T02:11:51.713Z,98897.77
2019-01-13T02:14:22.805Z,98887.70
2019-01-13T02:16:52.404Z,98895.94
2019-01-13T02:19:21.847Z,98897.77
2019-01-13T02:21:51.314Z,98903.08
2019-01-13T02:24:20.829Z,98899.38
2019-01-13T02:26:50.312Z,98889.81
2019-01-13T02:29:19.754Z,98889.02
2019-01-13T02:31:49.207Z,98894.31
2019-01-13T02:34:18.654Z,98884.77
2019-01-13T02:36:48.169Z,98882.13
2019-01-13T02:39:17.892Z,98872.83
2019-01-13T02:41:47.350Z,98876.80
2019-01-13T02:44:16.826Z,98872.28
2019-01-13T02:46:46.257Z,98877.09
2019-01-13T02:49:15.695Z,98872.56
2019-01-13T02:51:45.159Z,98868.33
2019-01-13T02:54:14.631Z,98867.00
2019-01-13T02:56:44.151Z,98877.86
2019-01-13T02:59:13.802Z,98870.98
2019-01-13T03:01:43.248Z,98876.02
2019-01-13T03:04:12.704Z,98879.45
2019-01-13T03:06:42.169Z,98876.29
2019-01-13T03:09:11.818Z,98873.09
2019-01-13T03:11:41.774Z,98870.45
2019-01-13T03:14:11.244Z,98868.59
2019-01-13T03:16:40.680Z,98865.15
2019-01-13T03:19:10.598Z,98865.95
2019-01-13T03:21:40.015Z,98859.33
2019-01-13T03:24:09.771Z,98861.16
2019-01-13T03:26:39.522Z,98856.38
2019-01-13T03:29:08.982Z,98857.98
2019-01-13T03:31:38.707Z,98862.75
2019-01-13T03:34:08.450Z,98856.09
2019-01-13T03:36:37.898Z,98860.08
2019-01-13T03:39:08.203Z,98866.17
2019-01-13T03:41:37.646Z,98861.95
2019-01-13T03:44:07.111Z,98865.40
2019-01-13T03:46:36.899Z,98862.73
2019-01-13T03:49:06.359Z,98860.09
2019-01-13T03:51:35.819Z,98859.05
2019-01-13T03:54:05.534Z,98864.58
2019-01-13T03:56:34.988Z,98867.25
2019-01-13T03:59:04.437Z,98862.48
2019-01-13T04:01:33.885Z,98864.33
2019-01-13T04:04:03.342Z,98858.75
2019-01-13T04:06:32.786Z,98859.03
2019-01-13T04:09:02.679Z,98857.44
2019-01-13T04:11:32.155Z,98855.30
2019-01-13T04:14:02.156Z,98856.09
2019-01-13T04:16:31.600Z,98857.96
2019-01-13T04:19:01.060Z,98853.97
2019-01-13T04:21:30.771Z,98848.95
2019-01-13T04:24:00.235Z,98850.00
2019-01-13T04:26:29.748Z,98851.58
2019-01-13T04:28:59.209Z,98855.84
2019-01-13T04:31:28.651Z,98851.87
2019-01-13T04:33:58.112Z,98853.72
2019-01-13T04:36:27.553Z,98846.02
2019-01-13T04:38:57.015Z,98843.12
2019-01-13T04:41:26.463Z,98843.89
2019-01-13T04:43:56.216Z,98839.36
2019-01-13T04:46:25.670Z,98844.93
2019-01-13T04:48:55.382Z,98829.26
2019-01-13T04:51:24.836Z,98832.18
2019-01-13T04:53:54.308Z,98831.38
2019-01-13T04:56:23.765Z,98834.59
2019-01-13T04:58:53.286Z,98828.48
2019-01-13T05:01:23.066Z,98823.97
2019-01-13T05:03:52.513Z,98829.55
2019-01-13T05:06:22.278Z,98833.02
2019-01-13T05:08:51.723Z,98830.09
2019-01-13T05:11:21.174Z,98831.70
2019-01-13T05:13:50.993Z,98827.19
2019-01-13T05:16:20.433Z,98823.47
2019-01-13T05:18:49.879Z,98826.90
2019-01-13T05:21:19.317Z,98829.03
2019-01-13T05:23:49.071Z,98831.16
2019-01-13T05:26:19.635Z,98826.38
2019-01-13T05:28:49.462Z,98822.09
2019-01-13T05:31:18.909Z,98825.81
2019-01-13T05:33:48.369Z,98818.65
2019-01-13T05:36:17.839Z,98816.77
2019-01-13T05:38:47.302Z,98819.14
2019-01-13T05:41:16.750Z,98823.61
2019-01-13T05:43:46.254Z,98826.01
2019-01-13T05:46:15.992Z,98824.96
2019-01-13T05:48:45.458Z,98824.12
2019-01-13T05:51:14.913Z,98821.78
2019-01-13T05:53:44.732Z,98825.79
2019-01-13T05:56:14.183Z,98826.31
2019-01-13T05:58:43.655Z,98825.00
2019-01-13T06:01:13.432Z,98823.42
2019-01-13T06:03:42.968Z,98817.88
2019-01-13T06:06:14.047Z,98821.05
2019-01-13T06:08:43.515Z,98822.93
2019-01-13T06:11:13.997Z,98821.60
2019-01-13T06:13:54.106Z,98814.67
2019-01-13T06:16:31.491Z,98819.71
2019-01-13T06:19:06.069Z,98822.38
2019-01-13T06:21:39.350Z,98819.17
2019-01-13T06:24:16.225Z,98818.13
2019-01-13T06:26:52.404Z,98824.76
2019-01-13T06:29:26.466Z,98814.42
2019-01-13T06:32:00.983Z,98814.67
2019-01-13T06:34:31.327Z,98819.45
2019-01-13T06:37:04.742Z,98813.88
2019-01-13T06:39:48.630Z,98818.42
2019-01-13T06:42:21.528Z,98820.56
2019-01-13T06:44:55.206Z,98809.67
2019-01-13T06:47:32.693Z,98812.33
2019-01-13T06:50:08.647Z,98810.22
2019-01-13T06:52:47.779Z,98807.56
2019-01-13T06:55:17.360Z,98803.85
2019-01-13T06:57:46.815Z,98812.07
2019-01-13T07:00:19.483Z,98815.52
2019-01-13T07:02:49.032Z,98811.80
2019-01-13T07:05:18.487Z,98815.50
2019-01-13T07:07:47.946Z,98820.00
2019-01-13T07:10:17.405Z,98808.59
2019-01-13T07:12:46.865Z,98810.19
2019-01-13T07:15:18.157Z,98813.64
2019-01-13T07:17:47.667Z,98806.18
2019-01-13T07:20:18.572Z,98804.58
2019-01-13T07:22:48.501Z,98803.77
2019-01-13T07:25:17.956Z,98799.53
2019-01-13T07:27:47.495Z,98802.41
2019-01-13T07:30:18.791Z,98801.88
2019-01-13T07:32:48.251Z,98792.57
2019-01-13T07:35:18.528Z,98788.58
2019-01-13T07:37:47.965Z,98785.37
2019-01-13T07:40:19.067Z,98785.11
2019-01-13T07:42:48.841Z,98782.16
2019-01-13T07:45:21.572Z,98785.88
2019-01-13T07:47:51.026Z,98779.20
2019-01-13T07:50:20.749Z,98778.94
2019-01-13T07:52:50.205Z,98783.17
2019-01-13T07:55:20.950Z,98772.06
2019-01-13T07:57:50.402Z,98764.59
2019-01-13T08:00:22.320Z,98772.06
2019-01-13T08:02:52.537Z,98768.88
2019-01-13T08:05:22.063Z,98771.78
2019-01-13T08:07:51.518Z,98764.86
2019-01-13T08:10:21.042Z,98762.73
2019-01-13T08:12:50.531Z,98752.63
2019-01-13T08:15:21.187Z,98750.47
2019-01-13T08:17:50.962Z,98748.86
2019-01-13T08:20:22.774Z,98745.95
2019-01-13T08:22:52.276Z,98742.45
2019-01-13T08:25:21.779Z,98732.86
2019-01-13T08:27:51.213Z,98728.08
2019-01-13T08:30:21.112Z,98729.18
2019-01-13T08:32:50.617Z,98729.97
2019-01-13T08:35:20.322Z,98737.89
2019-01-13T08:37:49.840Z,98730.38
2019-01-13T08:40:20.174Z,98718.98
2019-01-13T08:42:49.680Z,98710.97
2019-01-13T08:45:19.568Z,98706.47
2019-01-13T08:47:49.586Z,98702.80
2019-01-13T08:50:20.441Z,98704.33
2019-01-13T08:52:49.954Z,98689.72
2019-01-13T08:55:19.440Z,98686.48
2019-01-13T08:57:49.179Z,98679.56
2019-01-13T09:00:23.833Z,98678.99
2019-01-13T09:02:53.274Z,98689.63
2019-01-13T09:05:23.209Z,98672.89
2019-01-13T09:07:52.644Z,98667.53
2019-01-13T09:10:22.171Z,98665.36
2019-01-13T09:12:56.700Z,98654.16
2019-01-13T09:15:24.782Z,98651.27
2019-01-13T09:17:54.473Z,98642.75
2019-01-13T09:20:27.046Z,98636.56
2019-01-13T09:22:57.620Z,98629.95
2019-01-13T09:25:27.536Z,98629.46
2019-01-13T09:27:56.973Z,98618.68
2019-01-13T09:30:28.074Z,98621.06
2019-01-13T09:32:57.518Z,98615.39
2019-01-13T09:35:27.431Z,98615.91
2019-01-13T09:37:57.199Z,98608.99
2019-01-13T09:40:28.602Z,98606.81
2019-01-13T09:42:58.677Z,98604.22
2019-01-13T09:45:28.243Z,98598.27
2019-01-13T09:47:57.930Z,98593.16
2019-01-13T09:50:27.881Z,98584.09
2019-01-13T09:52:57.320Z,98569.11
2019-01-13T09:55:27.416Z,98571.45
2019-01-13T09:57:58.532Z,98549.60
2019-01-13T10:00:30.932Z,98563.41
2019-01-13T10:03:00.646Z,98556.69
2019-01-13T10:05:30.171Z,98544.72
2019-01-13T10:07:59.603Z,98535.89
2019-01-13T10:10:29.841Z,98546.77
2019-01-13T10:12:59.260Z,98538.63
2019-01-13T10:15:28.877Z,98525.80
2019-01-13T10:17:58.482Z,98530.25
2019-01-13T10:20:28.337Z,98531.28
2019-01-13T10:22:57.871Z,98512.70
2019-01-13T10:25:27.455Z,98507.89
2019-01-13T10:27:56.992Z,98512.66
2019-01-13T10:30:28.594Z,98501.56
2019-01-13T10:32:58.126Z,98499.99
2019-01-13T10:35:27.677Z,98492.48
2019-01-13T10:37:57.315Z,98484.82
2019-01-13T10:40:28.108Z,98485.09
2019-01-13T10:42:57.650Z,98481.09
2019-01-13T10:45:27.166Z,98464.45
2019-01-13T10:47:56.615Z,98469.77
2019-01-13T10:50:27.753Z,98454.09
2019-01-13T10:52:59.169Z,98449.69
2019-01-13T10:55:29.007Z,98442.52
2019-01-13T10:57:58.561Z,98444.48
2019-01-13T11:00:33.133Z,98439.53
2019-01-13T11:03:02.864Z,98421.47
2019-01-13T11:05:32.286Z,98416.42
2019-01-13T11:08:02.375Z,98417.25
2019-01-13T11:10:32.196Z,98410.13
2019-01-13T11:13:02.329Z,98394.23
2019-01-13T11:15:31.871Z,98385.17
2019-01-13T11:18:01.390Z,98380.08
2019-01-13T11:20:35.247Z,98362.27
2019-01-13T11:23:05.068Z,98358.47
2019-01-13T11:25:34.741Z,98347.33
2019-01-13T11:28:05.456Z,98346.87
2019-01-13T11:30:34.906Z,98344.17
2019-01-13T11:33:09.290Z,98349.17
2019-01-13T11:35:35.534Z,98331.07
2019-01-13T11:38:05.049Z,98320.66
2019-01-13T11:40:34.859Z,98311.68
2019-01-13T11:43:04.342Z,98300.27
2019-01-13T11:45:33.762Z,98296.10
2019-01-13T11:48:03.217Z,98289.41
2019-01-13T11:50:32.706Z,98281.16
2019-01-13T11:53:02.370Z,98273.23
2019-01-13T11:55:32.033Z,98265.30
2019-01-13T11:58:01.549Z,98254.86
2019-01-13T12:00:36.788Z,98252.75
2019-01-13T12:03:07.040Z,98250.23
2019-01-13T12:05:36.632Z,98238.84
2019-01-13T12:08:06.613Z,98236.94
2019-01-13T12:10:36.330Z,98232.13
2019-01-13T12:13:05.853Z,98225.81
2019-01-13T12:15:35.639Z,98226.14
2019-01-13T12:18:05.104Z,98207.92
2019-01-13T12:20:34.557Z,98199.71
2019-01-13T12:23:04.009Z,98194.40
2019-01-13T12:25:33.449Z,98192.12
2019-01-13T12:28:02.936Z,98182.09
2019-01-13T12:30:32.627Z,98170.96
2019-01-13T12:33:02.156Z,98180.59
2019-01-13T12:35:31.617Z,98149.30
2019-01-13T12:38:01.078Z,98154.67
2019-01-13T12:40:31.208Z,98133.16
2019-01-13T12:43:00.726Z,98129.44
2019-01-13T12:45:30.189Z,98119.09
2019-01-13T12:47:59.709Z,98112.35
2019-01-13T12:50:30.957Z,98094.98
2019-01-13T12:53:00.418Z,98089.72
2019-01-13T12:55:29.971Z,98083.03
2019-01-13T12:57:59.872Z,98080.73
2019-01-13T13:00:29.442Z,98060.92
2019-01-13T13:02:59.009Z,98043.89
2019-01-13T13:05:28.534Z,98042.61
2019-01-13T13:07:57.986Z,98038.13
2019-01-13T13:10:33.197Z,98019.80
2019-01-13T13:13:02.692Z,98020.92
2019-01-13T13:15:32.126Z,98015.06
2019-01-13T13:18:01.607Z,97997.56
2019-01-13T13:20:31.060Z,98003.48
2019-01-13T13:23:00.611Z,97984.34
2019-01-13T13:25:32.119Z,97984.00
2019-01-13T13:28:01.360Z,97973.37
2019-01-13T13:30:30.887Z,97973.66
2019-01-13T13:33:00.669Z,97967.88
2019-01-13T13:35:30.293Z,97957.14
2019-01-13T13:37:59.764Z,97954.73
2019-01-13T13:40:29.209Z,97934.20
2019-01-13T13:42:58.701Z,97932.44
2019-01-13T13:45:28.148Z,97921.03
2019-01-13T13:47:57.877Z,97927.06
2019-01-13T13:50:27.812Z,97909.62
2019-01-13T13:52:59.133Z,97899.77
2019-01-13T13:55:28.919Z,97895.73
2019-01-13T13:58:00.103Z,97891.49
2019-01-13T14:00:32.004Z,97890.77
2019-01-13T14:03:01.724Z,97877.74
2019-01-13T14:05:31.549Z,97879.17
2019-01-13T14:08:01.060Z,97871.52
2019-01-13T14:10:33.731Z,97866.44
2019-01-13T14:13:03.288Z,97864.27
2019-01-13T14:15:32.991Z,97861.47
2019-01-13T14:18:02.452Z,97863.52
2019-01-13T14:20:32.164Z,97862.58
2019-01-13T14:23:02.048Z,97858.69
2019-01-13T14:25:31.487Z,97855.19
2019-01-13T14:28:00.946Z,97848.77
2019-01-13T14:30:30.667Z,97846.36
2019-01-13T14:33:00.132Z,97834.95
2019-01-13T14:35:29.878Z,97847.20
2019-01-13T14:38:01.032Z,97828.91
2019-01-13T14:40:30.755Z,97835.48
2019-01-13T14:43:00.215Z,97813.20
2019-01-13T14:45:29.725Z,97823.08
2019-01-13T14:47:59.180Z,97826.45
2019-01-13T14:50:29.967Z,97808.45
2019-01-13T14:52:59.555Z,97800.66
2019-01-13T14:55:29.001Z,97796.90
2019-01-13T14:57:59.428Z,97787.25
2019-01-13T15:00:30.015Z,97795.59
2019-01-13T15:02:59.667Z,97799.70
2019-01-13T15:05:29.198Z,97797.41
2019-01-13T15:07:58.666Z,97791.86
2019-01-13T15:10:28.415Z,97788.36
2019-01-13T15:12:57.951Z,97782.22
2019-01-13T15:15:27.726Z,97776.39
2019-01-13T15:17:57.210Z,97780.67
2019-01-13T15:20:27.046Z,97785.90
2019-01-13T15:22:56.862Z,97783.17
2019-01-13T15:25:28.264Z,97777.38
2019-01-13T15:27:57.978Z,97781.95
2019-01-13T15:30:30.241Z,97781.53
2019-01-13T15:32:59.971Z,97788.18
2019-01-13T15:35:29.599Z,97780.27
2019-01-13T15:37:59.093Z,97778.95
2019-01-13T15:40:28.558Z,97772.44
2019-01-13T15:42:58.075Z,97765.70
2019-01-13T15:45:27.516Z,97763.20
2019-01-13T15:47:56.965Z,97764.60
2019-01-13T15:50:28.162Z,97761.16
2019-01-13T15:52:57.618Z,97756.86
2019-01-13T15:55:27.071Z,97752.87
2019-01-13T15:57:56.545Z,97737.06
2019-01-13T16:00:28.510Z,97730.61
2019-01-13T16:02:58.897Z,97720.53
2019-01-13T16:05:28.711Z,97708.17
2019-01-13T16:07:58.278Z,97694.11
2019-01-13T16:10:27.749Z,97691.16
2019-01-13T16:12:57.479Z,97701.05
2019-01-13T16:15:33.900Z,97707.33
2019-01-13T16:17:58.119Z,97716.40
2019-01-13T16:20:32.988Z,97713.05
2019-01-13T16:23:02.955Z,97706.11
2019-01-13T16:25:32.393Z,97699.80
2019-01-13T16:28:01.867Z,97690.72
2019-01-13T16:30:32.366Z,97682.38
2019-01-13T16:33:02.224Z,97687.88
2019-01-13T16:35:32.130Z,97678.27
2019-01-13T16:38:01.578Z,97675.02
2019-01-13T16:40:32.050Z,97664.90
2019-01-13T16:43:01.575Z,97648.57
2019-01-13T16:45:31.182Z,97636.38
2019-01-13T16:48:00.634Z,97632.48
2019-01-13T16:50:30.193Z,97628.81
2019-01-13T16:52:59.640Z,97622.38
2019-01-13T16:55:29.222Z,97624.84
2019-01-13T16:57:58.996Z,97624.58
2019-01-13T17:00:29.408Z,97612.23
2019-01-13T17:02:58.864Z,97606.05
2019-01-13T17:05:29.889Z,97600.02
2019-01-13T17:07:59.408Z,97597.66
2019-01-13T17:10:28.850Z,97586.23
2019-01-13T17:12:58.372Z,97580.83
2019-01-13T17:15:30.025Z,97575.13
2019-01-13T17:17:59.788Z,97570.99
2019-01-13T17:20:29.257Z,97574.05
2019-01-13T17:22:58.712Z,97568.80
2019-01-13T17:25:28.340Z,97562.23
2019-01-13T17:27:58.080Z,97555.34
2019-01-13T17:30:32.277Z,97555.11
2019-01-13T17:33:02.333Z,97539.79
2019-01-13T17:35:31.810Z,97536.33
2019-01-13T17:38:01.277Z,97533.28
2019-01-13T17:40:30.739Z,97526.58
2019-01-13T17:43:00.201Z,97527.43
2019-01-13T17:45:30.873Z,97516.80
2019-01-13T17:48:00.594Z,97514.13
2019-01-13T17:50:30.494Z,97514.19
2019-01-13T17:52:59.957Z,97507.02
2019-01-13T17:55:30.737Z,97509.42
2019-01-13T17:58:00.189Z,97492.00
2019-01-13T18:00:35.292Z,97484.07
2019-01-13T18:03:10.710Z,97473.90
2019-01-13T18:05:40.182Z,97467.72
2019-01-13T18:08:09.629Z,97472.78
2019-01-13T18:10:39.108Z,97462.14
2019-01-13T18:13:08.574Z,97459.64
2019-01-13T18:15:38.146Z,97446.47
2019-01-13T18:18:07.822Z,97442.72
2019-01-13T18:20:37.293Z,97442.72
2019-01-13T18:23:06.747Z,97440.06
2019-01-13T18:25:36.239Z,97433.45
2019-01-13T18:28:05.694Z,97436.83
2019-01-13T18:30:35.185Z,97428.75
2019-01-13T18:33:05.313Z,97433.80
2019-01-13T18:35:34.944Z,97422.38
2019-01-13T18:38:04.387Z,97418.52
2019-01-13T18:40:33.845Z,97417.65
2019-01-13T18:43:03.381Z,97406.05
2019-01-13T18:45:32.854Z,97408.58
2019-01-13T18:48:02.678Z,97408.16
2019-01-13T18:50:32.137Z,97409.89
2019-01-13T18:53:10.461Z,97398.56
2019-01-13T18:55:39.932Z,97392.69
2019-01-13T18:58:09.409Z,97396.36
2019-01-13T19:00:38.865Z,97402.92
2019-01-13T19:03:08.362Z,97382.55
2019-01-13T19:05:37.813Z,97388.76
2019-01-13T19:08:07.299Z,97382.56
2019-01-13T19:10:48.699Z,97387.48
2019-01-13T19:13:23.973Z,97383.34
2019-01-13T19:15:56.846Z,97368.98
2019-01-13T19:18:26.363Z,97363.54
2019-01-13T19:20:55.796Z,97362.13
2019-01-13T19:23:26.798Z,97358.03
2019-01-13T19:25:56.257Z,97352.39
2019-01-13T19:28:25.705Z,97352.70
2019-01-13T19:30:57.071Z,97341.28
2019-01-13T19:33:26.614Z,97354.03
2019-01-13T19:35:56.057Z,97351.52
2019-01-13T19:38:25.533Z,97351.47
2019-01-13T19:40:54.974Z,97352.75
2019-01-13T19:43:24.438Z,97331.14
2019-01-13T19:45:53.889Z,97336.36
2019-01-13T19:48:23.332Z,97334.72
2019-01-13T19:50:52.806Z,97331.91
2019-01-13T19:53:22.272Z,97334.92
2019-01-13T19:55:51.734Z,97335.38
2019-01-13T19:58:21.215Z,97357.42
2019-01-13T20:00:50.751Z,97373.70
2019-01-13T20:03:20.518Z,97378.30
2019-01-13T20:05:50.222Z,97368.20
2019-01-13T20:08:20.754Z,97404.45
2019-01-13T20:10:50.319Z,97414.36
2019-01-13T20:13:19.767Z,97406.41
2019-01-13T20:15:49.232Z,97402.23
2019-01-13T20:18:18.687Z,97418.58
2019-01-13T20:20:48.157Z,97426.89
2019-01-13T20:23:19.311Z,97433.50
2019-01-13T20:25:49.129Z,97444.72
2019-01-13T20:28:18.592Z,97454.20
2019-01-13T20:30:48.085Z,97443.18
2019-01-13T20:33:19.163Z,97456.70
2019-01-13T20:35:48.606Z,97457.43
2019-01-13T20:38:18.471Z,97464.80
2019-01-13T20:40:47.933Z,97455.77
2019-01-13T20:43:17.399Z,97459.15
2019-01-13T20:45:48.510Z,97462.05
2019-01-13T20:48:18.002Z,97470.80
2019-01-13T20:50:47.488Z,97464.30
2019-01-13T20:53:17.408Z,97465.79
2019-01-13T20:55:47.026Z,97454.16
2019-01-13T20:58:17.244Z,97480.25
2019-01-13T21:00:46.702Z,97474.16
2019-01-13T21:03:16.349Z,97465.94
2019-01-13T21:05:45.871Z,97475.57
2019-01-13T21:08:15.493Z,97491.12
2019-01-13T21:10:45.004Z,97485.17
2019-01-13T21:13:14.500Z,97482.98
2019-01-13T21:15:44.016Z,97489.08
2019-01-13T21:18:16.889Z,97479.86
2019-01-13T21:20:46.323Z,97474.92
2019-01-13T21:23:15.790Z,97478.78
2019-01-13T21:25:45.455Z,97489.71
2019-01-13T21:28:15.495Z,97479.30
2019-01-13T21:30:44.990Z,97484.23
2019-01-13T21:33:14.842Z,97491.10
2019-01-13T21:35:44.758Z,97486.04
2019-01-13T21:38:15.175Z,97473.45
2019-01-13T21:40:44.644Z,97498.09
2019-01-13T21:43:14.092Z,97491.58
2019-01-13T21:45:43.581Z,97498.08
2019-01-13T21:48:13.057Z,97489.45
2019-01-13T21:50:42.529Z,97489.31
2019-01-13T21:53:12.318Z,97490.94
2019-01-13T21:55:41.800Z,97479.80
2019-01-13T21:58:11.518Z,97480.09
2019-01-13T22:00:41.019Z,97482.59
2019-01-13T22:03:10.503Z,97503.63
2019-01-13T22:05:41.168Z,97485.80
2019-01-13T22:08:11.013Z,97484.47
2019-01-13T22:10:40.475Z,97482.20
2019-01-13T22:13:09.921Z,97477.44
2019-01-13T22:15:39.391Z,97475.48
2019-01-13T22:18:09.522Z,97472.73
2019-01-13T22:20:39.074Z,97476.50
2019-01-13T22:23:08.598Z,97469.39
2019-01-13T22:25:38.042Z,97481.48
2019-01-13T22:28:07.771Z,97481.73
2019-01-13T22:30:37.241Z,97484.02
2019-01-13T22:33:06.717Z,97486.52
2019-01-13T22:35:36.171Z,97483.23
2019-01-13T22:38:05.640Z,97471.44
2019-01-13T22:40:35.074Z,97472.69
2019-01-13T22:43:05.159Z,97471.97
2019-01-13T22:45:34.610Z,97465.93
2019-01-13T22:48:04.318Z,97479.70
2019-01-13T22:50:33.763Z,97478.27
2019-01-13T22:53:03.231Z,97481.61
2019-01-13T22:55:32.732Z,97475.44
2019-01-13T22:58:02.193Z,97483.02
2019-01-13T23:00:48.481Z,97490.22
2019-01-13T23:03:18.461Z,97495.77
2019-01-13T23:05:47.896Z,97496.98
2019-01-13T23:08:17.342Z,97493.23
2019-01-13T23:10:47.107Z,97496.35
2019-01-13T23:13:16.912Z,97502.62
2019-01-13T23:15:46.358Z,97505.58
2019-01-13T23:18:15.806Z,97485.34
2019-01-13T23:20:45.503Z,97499.10
2019-01-13T23:23:15.206Z,97494.00
2019-01-13T23:25:44.645Z,97491.05
2019-01-13T23:28:14.090Z,97497.39
2019-01-13T23:30:43.584Z,97504.81
2019-01-13T23:33:13.069Z,97502.84
2019-01-13T23:35:42.514Z,97501.47
2019-01-13T23:38:11.958Z,97498.86
2019-01-13T23:40:41.676Z,97510.20
2019-01-13T23:43:11.136Z,97524.03
2019-01-13T23:45:40.574Z,97518.33
2019-01-13T23:48:10.017Z,97511.03
2019-01-13T23:50:39.567Z,97526.98
2019-01-13T23:53:09.022Z,97526.98
2019-01-13T23:55:38.812Z,97527.45
2019-01-13T23:58:08.266Z,97521.54
